site sitenws-alerts: Checking more than four warning/county codes can delay the loading of your pages. You should use a cron job to get the data.

Nearby METAR Weather Reports

 

KDMA - Davis/Tucson, Arizona, USA
Distance from station: W 21mi, 34km
Updated: 09/18/2018 12:56pm
NOT Current
Clear
Clear
 Wind from WNW
Wind: WNW 7 mph , 11 km/h
Temperature: 97°F , 36°C
Dew Point: 55°F , 13°C
Humidity: 25%
Barometer: 29.90 inHg , 1012.5 hPa
Clouds: Clear
Visibility: 10 miles , 16 km
2018/09/18 19:56 KDMA 181956Z AUTO 30006KT 10SM CLR 36/13 A2990 RMK AO2 SLP074 T03600128 $
KTUS - Tucson, Arizona, USA
Distance from station: W 26mi, 42km
Updated: 09/19/2018 1:53am
Few Clouds
Few Clouds
 Wind from SE
Wind: SE 8 mph , 13 km/h
Temperature: 82°F , 28°C
Heat Index: 82°F , 28°C
Dew Point: 61°F , 16°C
Humidity: 48%
Barometer: 29.87 inHg , 1011.5 hPa
Clouds: Few Clouds
Visibility: 10 miles , 16 km
Cloud details: Few Clouds 12000 ft
2018/09/19 08:53 KTUS 190853Z 14007KT 10SM FEW120 28/16 A2987 RMK AO2 SLP058 T02830156 58004
 
KALK - Pioneer Airfield, Arizona, USA
Distance from station: S 37mi, 60km
Updated: 09/19/2018 1:56am
Clear
Clear
 Wind from WSW
Wind: WSW 6 mph , 9 km/h
Temperature: 68°F , 20°C
Dew Point: 61°F , 16°C
Humidity: 78%
Barometer: 30.02 inHg , 1016.6 hPa
Clouds: Clear
Visibility: 10 miles , 16 km
2018/09/19 08:56 KALK 190856Z AUTO 24005KT 10SM CLR 20/16 A3002 RMK AO2 SLP064 60001 T02000161 56019
KRYN - Tucson/Ryan Fld, Arizona, USA
Distance from station: W 39mi, 62km
Updated: 09/18/2018 7:45pm
NOT Current
Clear
Clear
 Wind from WSW
Wind: WSW 7 mph , 11 km/h
Temperature: 91°F , 33°C
Dew Point: 52°F , 11°C
Humidity: 26%
Barometer: 29.84 inHg , 1010.5 hPa
Clouds: Clear
Visibility: 10 miles , 16 km
2018/09/19 02:45 KRYN 190245Z 24006KT 10SM CLR 33/11 A2984 RMK LAST
 
KFHU - Fort Huachuca, Arizona, USA
Distance from station: SSE 39mi, 63km
Updated: 09/17/2018 8:58am
NOT Current
Clear
Clear
 Wind from NNW
Wind: NNW 3 mph , 6 km/h
Temperature: 82°F , 28°C
Dew Point: 54°F , 12°C
Humidity: 37%
Barometer: 30.14 inHg , 1020.7 hPa
Clouds: Clear
Visibility: 10 miles , 16 km
2018/09/17 15:58 KFHU 171558Z AUTO 34003KT 10SM CLR 28/12 A3014 RMK AO2 SLP131 T02760119 $
KOLS - Nogales, Arizona, USA
Distance from station: SSW 54mi, 86km
Updated: 09/19/2018 1:54am
Few Clouds
Few Clouds
 Wind from SSE
Wind: SSE 7 mph , 11 km/h
Temperature: 70°F , 21°C
Dew Point: 64°F , 18°C
Humidity: 83%
Barometer: 29.96 inHg , 1014.6 hPa
Clouds: Few Clouds
Visibility: 10 miles , 16 km
Cloud details: Few Clouds 12000 ft
2018/09/19 08:54 KOLS 190854Z AUTO 15006KT 10SM FEW120 21/18 A2996 RMK AO2 SLP068 60000 T02110178 55010
 
KDUG - Douglas Bisbee, Arizona, USA
Distance from station: SE 71mi, 114km
Updated: 09/19/2018 1:56am
Clear
Clear
 Wind from SSE
Wind: SSE 7 mph , 11 km/h
Temperature: 66°F , 19°C
Dew Point: 63°F , 17°C
Humidity: 88%
Barometer: 29.97 inHg , 1014.9 hPa
Clouds: Clear
Visibility: 10 miles , 16 km
2018/09/19 08:56 KDUG 190856Z AUTO 16006KT 10SM CLR 19/17 A2997 RMK AO2 SLP072 T01940172 56004
KSAD - Safford, Arizona, USA
Distance from station: NE 71mi, 114km
Updated: 09/19/2018 1:51am
Clear
Clear
 Wind from NW
Wind: NW 8 mph , 13 km/h
Temperature: 82°F , 28°C
Dew Point: 50°F , 10°C
Humidity: 32%
Barometer: 29.84 inHg , 1010.5 hPa
Clouds: Clear
Visibility: 10 miles , 16 km
2018/09/19 08:51 KSAD 190851Z AUTO 32007KT 10SM CLR 28/10 A2984 RMK AO2 SLP040 T02830100 50000
 
KCGZ - Casa Granda, Arizona, USA
Distance from station: NW 93mi, 149km
Updated: 09/19/2018 1:56am
Clear
Clear
 Wind from SW
Wind: SW 7 mph , 11 km/h
Temperature: 84°F , 29°C
Heat Index: 86°F , 30°C
Dew Point: 66°F , 19°C
Humidity: 55%
Barometer: 29.77 inHg , 1008.1 hPa
Clouds: Clear
Visibility: 10 miles , 16 km
2018/09/19 08:56 KCGZ 190856Z AUTO 23006KT 10SM CLR 29/19 A2977 RMK AO2 SLP063 T02940194 55001 $
KLSB - Lordsburg, New Mexico, USA
Distance from station: E 106mi, 171km
Updated: 02/26/2018 1:22pm
NOT Current
Clear
Clear
 Wind from ESE
Wind: ESE 13 mph , 20 km/h, Gust: 18 mph , 30 km/h
Temperature: 63°F , 17°C
Dew Point: 10°F , -12°C
Humidity: 13%
Barometer: 30.04 inHg , 1017.3 hPa
Clouds: Clear
Visibility: 10 miles , 16 km
2018/02/26 20:22 KLSB 262022Z AUTO 11011G16KT 090V150 10SM CLR 17/M12 A3004
 
KPHX - Phoenix/Sky Hrbr, Arizona, USA
Distance from station: NW 126mi, 202km
Updated: 09/19/2018 1:51am
Partly cloudy
Partly cloudy
 Wind from WNW
Wind: WNW 13 mph , 20 km/h
Temperature: 90°F , 32°C
Heat Index: 94°F , 34°C
Dew Point: 68°F , 20°C
Humidity: 49%
Barometer: 29.72 inHg , 1006.4 hPa
Clouds: Partly cloudy
Visibility: 10 miles , 16 km
Cloud details: Partly cloudy 20000 ft
2018/09/19 08:51 KPHX 190851Z 30011KT 10SM SCT200 32/20 A2972 RMK AO2 SLP041 T03170200 53002
KGXF - Gila Bend (aaf), Arizona, USA
Distance from station: WNW 139mi, 223km
Updated: 09/18/2018 12:58pm
NOT Current
Clear
Clear
 Wind from WSW
Wind: WSW 5 mph , 7 km/h
Temperature: 100°F , 38°C
Dew Point: 57°F , 14°C
Humidity: 24%
Barometer: 29.77 inHg , 1008.1 hPa
Clouds: Clear
Visibility: 10 miles , 16 km
2018/09/18 19:58 KGXF 181958Z AUTO 25004KT 10SM CLR 38/14 A2977 RMK AO2 SLP066 T03770135
 
KSVC - Silver City, New Mexico, USA
Distance from station: ENE 142mi, 228km
Updated: 09/19/2018 2:15am
Clear
Clear
 Wind from NNE
Wind: NNE 7 mph , 11 km/h
Temperature: 63°F , 17°C
Dew Point: 52°F , 11°C
Humidity: 68%
Barometer: 30.06 inHg , 1017.9 hPa
Clouds: Clear
Visibility: 10 miles , 16 km
2018/09/19 09:15 KSVC 190915Z AUTO 02006KT 10SM CLR 17/11 A3006 RMK AO2 T01710114
KLUF - Luke Afb/Glendal, Arizona, USA
Distance from station: NW 144mi, 232km
Updated: 09/18/2018 12:56pm
NOT Current
Clear
Clear
 Wind from SSW
Wind: SSW 12 mph , 19 km/h
Temperature: 100°F , 38°C
Dew Point: 59°F , 15°C
Humidity: 25%
Barometer: 29.78 inHg , 1008.5 hPa
Clouds: Clear
Visibility: 10 miles , 16 km
2018/09/18 19:56 KLUF 181956Z AUTO 20010KT 10SM CLR 38/15 A2978 RMK AO2 SLP069 T03800145 $